Time;durP1;ratioP1;P1;durP2;ratioP2;P2;SDS_P1;SDS_P2;PMS_P1;PMS_P2;Temp;Humidity;BMP_temperature;BMP_pressure;BME280_temperature;BME280_humidity;BME280_pressure;Samples;Min_cycle;Max_cycle;Signal;HPM_P1;HPM_P2
2023/08/13 00:01:28;;;;;;;27.60;26.63;;;24.50;99.90;;;;;;5074515;28;20860;-51
2023/08/13 00:03:56;;;;;;;25.50;24.60;;;24.50;99.90;;;;;;5075578;28;20468;-51
2023/08/13 00:06:23;;;;;;;26.90;25.50;;;24.50;99.90;;;;;;5074957;28;20498;-51
2023/08/13 00:08:50;;;;;;;25.80;24.80;;;24.50;99.90;;;;;;5074745;28;20474;-50
2023/08/13 00:11:17;;;;;;;25.40;24.20;;;24.50;99.90;;;;;;5075397;28;20493;-52
2023/08/13 00:13:44;;;;;;;26.57;25.67;;;24.40;99.90;;;;;;5074644;28;20491;-52
2023/08/13 00:16:11;;;;;;;26.80;25.80;;;24.50;99.90;;;;;;5073662;28;20514;-52
2023/08/13 00:18:38;;;;;;;28.00;26.83;;;24.40;99.90;;;;;;5074469;28;20445;-51
2023/08/13 00:21:06;;;;;;;26.00;24.90;;;24.40;99.90;;;;;;5073890;28;20478;-52
2023/08/13 00:23:33;;;;;;;25.33;24.30;;;24.40;99.90;;;;;;5074234;28;20524;-51
2023/08/13 00:26:00;;;;;;;27.47;26.23;;;24.40;99.90;;;;;;5074370;28;20463;-54
2023/08/13 00:28:26;;;;;;;25.60;24.50;;;24.40;99.90;;;;;;5090477;28;21000;-50
2023/08/13 00:30:55;;;;;;;24.70;23.80;;;24.40;99.90;;;;;;5094697;28;20481;-50
2023/08/13 00:33:22;;;;;;;26.13;25.13;;;24.40;99.90;;;;;;5094717;28;20485;-50
2023/08/13 00:35:50;;;;;;;26.83;25.93;;;24.40;99.90;;;;;;5086156;28;20511;-51
2023/08/13 00:38:19;;;;;;;25.57;24.67;;;24.40;99.90;;;;;;5074710;28;20810;-50
2023/08/13 00:40:46;;;;;;;26.40;25.50;;;24.30;99.90;;;;;;5074432;28;20439;-52
2023/08/13 00:43:12;;;;;;;26.00;24.87;;;24.30;99.90;;;;;;5074580;28;20498;-52
2023/08/13 00:45:40;;;;;;;26.47;25.40;;;24.30;99.90;;;;;;5074379;28;20482;-54
2023/08/13 00:48:08;;;;;;;25.93;24.57;;;24.30;99.90;;;;;;5074475;28;20439;-49
2023/08/13 00:50:35;;;;;;;25.73;24.80;;;24.30;99.90;;;;;;5073572;28;20463;-51
2023/08/13 00:53:03;;;;;;;27.90;26.80;;;24.30;99.90;;;;;;5073657;28;20535;-53
2023/08/13 00:55:32;;;;;;;25.77;24.73;;;24.30;99.90;;;;;;5073729;28;20494;-54
2023/08/13 00:58:00;;;;;;;26.40;25.50;;;24.30;99.90;;;;;;5074183;28;20475;-50
2023/08/13 01:00:27;;;;;;;26.47;25.57;;;24.30;99.90;;;;;;5073751;28;20475;-51
2023/08/13 01:02:54;;;;;;;27.37;26.13;;;24.30;99.90;;;;;;5074016;28;20499;-52
2023/08/13 01:05:26;;;;;;;24.20;23.30;;;24.30;99.90;;;;;;5073536;28;20501;-51
2023/08/13 01:08:07;;;;;;;25.97;24.90;;;24.30;99.90;;;;;;5074223;28;20486;-54
2023/08/13 01:10:37;;;;;;;25.10;24.20;;;24.30;99.90;;;;;;5073664;28;20823;-53
2023/08/13 01:13:10;;;;;;;24.97;24.00;;;24.30;99.90;;;;;;5073909;28;20487;-52
2023/08/13 01:15:39;;;;;;;25.17;24.27;;;24.30;99.90;;;;;;5074254;28;20448;-54
2023/08/13 01:18:07;;;;;;;25.00;24.00;;;24.30;99.90;;;;;;5073798;28;20455;-51
2023/08/13 01:20:36;;;;;;;25.60;24.50;;;24.30;99.90;;;;;;5073346;28;20866;-53
2023/08/13 01:23:05;;;;;;;26.77;25.77;;;24.30;99.90;;;;;;5073196;28;20502;-53
2023/08/13 01:25:33;;;;;;;24.97;24.07;;;24.30;99.90;;;;;;5073559;28;20531;-51
2023/08/13 01:28:08;;;;;;;24.97;24.10;;;24.30;99.90;;;;;;5076464;28;20970;-50
2023/08/13 01:30:39;;;;;;;24.83;23.90;;;24.30;99.90;;;;;;5077331;28;20530;-50
2023/08/13 01:33:09;;;;;;;25.10;24.20;;;24.30;99.90;;;;;;5077212;28;20469;-52
2023/08/13 01:35:36;;;;;;;25.00;23.90;;;24.30;99.90;;;;;;5077225;28;20486;-52
2023/08/13 01:38:06;;;;;;;30.90;29.70;;;24.30;99.90;;;;;;5077423;28;20439;-52
2023/08/13 01:40:33;;;;;;;25.47;24.57;;;24.20;99.90;;;;;;5077006;28;20447;-54
2023/08/13 01:43:00;;;;;;;24.30;23.43;;;24.30;99.90;;;;;;5077400;28;21012;-55
2023/08/13 01:45:27;;;;;;;24.93;24.10;;;24.30;99.90;;;;;;5078216;28;20483;-54
2023/08/13 01:47:54;;;;;;;24.07;23.13;;;24.20;99.90;;;;;;5077115;28;20474;-53
2023/08/13 01:50:21;;;;;;;26.00;25.07;;;24.20;99.90;;;;;;5077209;28;20486;-51
2023/08/13 01:52:48;;;;;;;24.77;23.63;;;24.20;99.90;;;;;;5077312;28;20451;-53
2023/08/13 01:55:17;;;;;;;26.37;25.23;;;24.20;99.90;;;;;;5079054;28;20474;-52
2023/08/13 01:57:43;;;;;;;25.37;24.37;;;24.20;99.90;;;;;;5078636;28;20479;-53
2023/08/13 02:00:12;;;;;;;26.20;25.10;;;24.20;99.90;;;;;;5079235;28;20886;-54
2023/08/13 02:02:39;;;;;;;25.57;24.57;;;24.20;99.90;;;;;;5078207;28;20462;-54
2023/08/13 02:05:07;;;;;;;25.10;24.10;;;24.20;99.90;;;;;;5077399;28;20570;-50
2023/08/13 02:07:34;;;;;;;26.73;25.53;;;24.20;99.90;;;;;;5076793;28;20441;-50
2023/08/13 02:10:01;;;;;;;26.00;25.00;;;24.20;99.90;;;;;;5076299;28;20457;-49
2023/08/13 02:12:29;;;;;;;25.13;24.27;;;24.20;99.90;;;;;;5076348;28;20452;-50
2023/08/13 02:14:56;;;;;;;26.30;25.40;;;24.20;99.90;;;;;;5076129;28;20474;-50
2023/08/13 02:17:23;;;;;;;26.27;25.27;;;24.20;99.90;;;;;;5075961;28;20516;-48
2023/08/13 02:19:50;;;;;;;25.63;24.73;;;24.20;99.90;;;;;;5076363;28;20877;-48
2023/08/13 02:22:17;;;;;;;25.10;24.30;;;24.20;99.90;;;;;;5076419;28;20483;-47
2023/08/13 02:24:44;;;;;;;26.33;25.37;;;24.20;99.90;;;;;;5075770;28;20499;-50
2023/08/13 02:27:11;;;;;;;25.60;24.70;;;24.20;99.90;;;;;;5075753;28;20865;-48
2023/08/13 02:29:39;;;;;;;27.47;26.33;;;24.10;99.90;;;;;;5075837;28;20851;-48
2023/08/13 02:32:06;;;;;;;27.30;26.40;;;24.20;99.90;;;;;;5075406;28;20506;-49
2023/08/13 02:34:34;;;;;;;25.30;24.40;;;24.20;99.90;;;;;;5082746;28;20505;-48
2023/08/13 02:37:01;;;;;;;26.07;25.07;;;24.20;99.90;;;;;;5079604;28;20489;-49
2023/08/13 02:39:28;;;;;;;25.10;24.00;;;24.10;99.90;;;;;;5095095;28;20485;-49
2023/08/13 02:41:55;;;;;;;26.67;25.67;;;24.10;99.90;;;;;;5095900;28;20467;-48
2023/08/13 02:44:22;;;;;;;27.50;26.50;;;24.10;99.90;;;;;;5095919;28;20490;-50
2023/08/13 02:46:51;;;;;;;27.10;26.10;;;24.10;99.90;;;;;;5088966;28;20547;-48
2023/08/13 02:49:17;;;;;;;26.43;25.43;;;24.10;99.90;;;;;;5075543;28;20474;-48
2023/08/13 02:51:44;;;;;;;25.93;24.93;;;24.10;99.90;;;;;;5075378;28;20474;-48
2023/08/13 02:54:11;;;;;;;25.23;24.13;;;24.10;99.90;;;;;;5075417;28;20495;-48
2023/08/13 02:56:38;;;;;;;27.13;26.03;;;24.10;99.90;;;;;;5075192;28;20510;-48
2023/08/13 02:59:05;;;;;;;27.13;26.03;;;24.10;99.90;;;;;;5075086;28;20471;-48
2023/08/13 03:01:32;;;;;;;27.23;25.93;;;24.10;99.90;;;;;;5074966;28;20478;-47
2023/08/13 03:04:03;;;;;;;28.27;27.17;;;24.10;99.90;;;;;;5074934;28;20498;-48
2023/08/13 03:06:30;;;;;;;27.03;26.00;;;24.10;99.90;;;;;;5075284;28;20450;-48
2023/08/13 03:08:57;;;;;;;26.10;25.00;;;24.10;99.90;;;;;;5084065;28;20478;-47
2023/08/13 03:11:24;;;;;;;27.40;26.40;;;24.10;99.90;;;;;;5095488;28;20468;-47
2023/08/13 03:13:52;;;;;;;29.37;28.17;;;24.10;99.90;;;;;;5095532;28;20490;-49
2023/08/13 03:16:20;;;;;;;27.90;26.70;;;24.10;99.90;;;;;;5094472;28;20442;-49
2023/08/13 03:18:47;;;;;;;28.27;26.87;;;24.10;99.90;;;;;;5075264;28;20517;-48
2023/08/13 03:21:15;;;;;;;28.23;27.03;;;24.10;99.90;;;;;;5074479;28;20475;-47
2023/08/13 03:23:42;;;;;;;27.07;25.83;;;24.10;99.90;;;;;;5074794;28;20495;-48
2023/08/13 03:26:08;;;;;;;27.93;26.83;;;24.00;99.90;;;;;;5075039;28;20479;-48
2023/08/13 03:28:35;;;;;;;32.03;30.93;;;24.10;99.90;;;;;;5075266;28;20483;-48
2023/08/13 03:31:03;;;;;;;29.07;27.87;;;24.00;99.90;;;;;;5074720;28;20910;-48
2023/08/13 03:33:30;;;;;;;25.50;24.50;;;24.00;99.90;;;;;;5074605;28;20495;-49
2023/08/13 03:35:57;;;;;;;25.67;24.77;;;24.00;99.90;;;;;;5074462;28;20479;-48
2023/08/13 03:38:25;;;;;;;28.80;27.77;;;24.00;99.90;;;;;;5076445;28;21023;-49
2023/08/13 03:40:55;;;;;;;26.27;25.17;;;24.00;99.90;;;;;;5094366;28;20478;-48
2023/08/13 03:43:22;;;;;;;28.13;26.93;;;24.00;99.90;;;;;;5094511;28;20467;-48
2023/08/13 03:45:49;;;;;;;27.70;26.60;;;24.00;99.90;;;;;;5095485;28;20477;-50
2023/08/13 03:48:15;;;;;;;26.57;25.60;;;24.00;99.90;;;;;;5095405;28;20470;-50
2023/08/13 03:50:43;;;;;;;27.33;26.40;;;24.00;99.90;;;;;;5090419;28;20482;-53
2023/08/13 03:53:10;;;;;;;26.57;25.60;;;24.00;99.90;;;;;;5074762;28;21033;-53
2023/08/13 03:55:38;;;;;;;26.47;25.37;;;24.00;99.90;;;;;;5075896;28;20965;-52
2023/08/13 03:58:06;;;;;;;33.30;32.20;;;24.00;99.90;;;;;;5074696;28;21044;-53
2023/08/13 04:00:33;;;;;;;34.20;32.90;;;24.00;99.90;;;;;;5074564;28;20481;-52
2023/08/13 04:03:00;;;;;;;35.30;34.00;;;24.10;99.90;;;;;;5080558;28;20505;-52
2023/08/13 04:05:27;;;;;;;35.07;33.73;;;24.10;99.90;;;;;;5095287;28;21003;-55
2023/08/13 04:07:54;;;;;;;28.97;27.97;;;24.10;99.90;;;;;;5094621;28;20454;-50
2023/08/13 04:10:20;;;;;;;28.70;27.50;;;24.20;99.90;;;;;;5094143;28;20872;-48
2023/08/13 04:12:49;;;;;;;30.50;29.43;;;24.20;99.90;;;;;;5090937;28;20885;-48
2023/08/13 04:15:16;;;;;;;30.97;29.50;;;24.30;99.90;;;;;;5074259;28;20490;-48
2023/08/13 04:17:43;;;;;;;31.03;29.57;;;24.30;99.90;;;;;;5092409;28;20506;-49
2023/08/13 04:20:11;;;;;;;31.67;30.30;;;24.40;99.90;;;;;;5093839;28;20568;-49
2023/08/13 04:22:38;;;;;;;31.03;29.83;;;24.50;99.90;;;;;;5093837;28;20443;-49
2023/08/13 04:25:07;;;;;;;31.67;30.20;;;24.50;99.90;;;;;;5093634;28;20538;-48
2023/08/13 04:27:34;;;;;;;31.90;30.60;;;24.50;99.90;;;;;;5093847;28;20439;-48
2023/08/13 04:30:02;;;;;;;29.63;28.53;;;24.50;99.90;;;;;;5093899;28;20466;-48
2023/08/13 04:32:29;;;;;;;33.53;32.00;;;24.50;99.90;;;;;;5093981;28;20447;-49
2023/08/13 04:34:56;;;;;;;30.80;29.37;;;24.50;99.90;;;;;;5093781;28;20494;-48
2023/08/13 04:37:23;;;;;;;31.20;30.10;;;24.50;99.90;;;;;;5084047;28;20503;-48
2023/08/13 04:39:50;;;;;;;31.87;30.67;;;24.50;99.90;;;;;;5073508;28;20447;-50
2023/08/13 04:42:16;;;;;;;30.87;29.60;;;24.40;99.90;;;;;;5073208;28;20486;-48
2023/08/13 04:44:43;;;;;;;31.50;30.20;;;24.40;99.90;;;;;;5073220;28;20490;-47
2023/08/13 04:47:12;;;;;;;28.47;27.37;;;24.40;99.90;;;;;;5073558;28;20669;-49
2023/08/13 04:49:38;;;;;;;29.13;27.90;;;24.30;99.90;;;;;;5078140;28;20864;-48
2023/08/13 04:52:05;;;;;;;30.90;29.60;;;24.30;99.90;;;;;;5073255;28;20451;-50
2023/08/13 04:54:32;;;;;;;32.13;30.93;;;24.20;99.90;;;;;;5073209;28;20647;-49
2023/08/13 04:56:59;;;;;;;30.37;29.17;;;24.20;99.90;;;;;;5073375;28;20507;-49
2023/08/13 04:59:26;;;;;;;32.70;31.33;;;24.10;99.90;;;;;;5073056;28;20482;-47
2023/08/13 05:01:53;;;;;;;28.07;26.83;;;24.10;99.90;;;;;;5086787;28;20798;-47
2023/08/13 05:04:21;;;;;;;30.13;28.93;;;24.10;99.90;;;;;;5093300;28;20477;-47
2023/08/13 05:06:48;;;;;;;31.37;30.17;;;24.00;99.90;;;;;;5093079;28;20471;-47
2023/08/13 05:09:15;;;;;;;31.17;29.60;;;23.90;99.90;;;;;;5093114;28;20478;-47
2023/08/13 05:11:43;;;;;;;32.27;31.07;;;23.90;99.90;;;;;;5087087;22;20603;-53
2023/08/13 05:14:10;;;;;;;35.80;34.40;;;23.90;99.90;;;;;;5041238;28;20480;-53
2023/08/13 05:16:37;;;;;;;33.97;32.60;;;23.80;99.90;;;;;;5040187;28;20441;-53
2023/08/13 05:19:04;;;;;;;29.50;28.20;;;23.80;99.90;;;;;;5042308;28;20508;-55
2023/08/13 05:21:33;;;;;;;29.37;28.37;;;23.80;99.90;;;;;;5043191;28;20910;-54
2023/08/13 05:24:00;;;;;;;35.60;34.13;;;23.80;99.90;;;;;;5041489;28;20448;-53
2023/08/13 05:26:26;;;;;;;36.33;34.77;;;23.80;99.90;;;;;;5039684;28;20525;-51
2023/08/13 05:28:54;;;;;;;36.70;35.30;;;23.80;99.90;;;;;;5040948;28;20967;-53
2023/08/13 05:31:21;;;;;;;35.53;34.03;;;23.80;99.90;;;;;;5043072;28;20472;-55
2023/08/13 05:33:50;;;;;;;36.60;35.13;;;23.80;99.90;;;;;;5041285;28;20502;-53
2023/08/13 05:36:19;;;;;;;36.47;35.03;;;23.90;99.90;;;;;;5039775;28;20487;-52
2023/08/13 05:38:52;;;;;;;36.50;34.70;;;24.00;99.90;;;;;;5040444;28;20913;-49
2023/08/13 05:41:21;;;;;;;35.47;34.17;;;24.10;99.90;;;;;;5032379;28;20468;-49
2023/08/13 05:43:50;;;;;;;36.90;35.60;;;24.20;99.90;;;;;;5039214;28;20445;-56
2023/08/13 05:46:20;;;;;;;37.03;35.63;;;24.30;99.90;;;;;;5043241;28;20455;-50
2023/08/13 05:48:51;;;;;;;37.67;36.27;;;24.40;99.90;;;;;;5040175;28;20487;-53
2023/08/13 05:51:32;;;;;;;35.80;34.30;;;24.50;99.90;;;;;;5032216;28;20461;-56
2023/08/13 05:54:04;;;;;;;37.23;35.93;;;24.60;99.90;;;;;;5039938;28;20453;-51
2023/08/13 05:56:34;;;;;;;35.00;33.70;;;24.70;99.90;;;;;;5041164;28;21038;-52
2023/08/13 05:59:09;;;;;;;35.87;34.47;;;24.80;99.90;;;;;;5041354;28;20476;-56
2023/08/13 06:01:38;;;;;;;38.53;37.00;;;24.90;99.90;;;;;;5042835;28;20472;-52
2023/08/13 06:04:07;;;;;;;35.00;33.70;;;25.00;99.90;;;;;;5040683;28;20876;-55
2023/08/13 06:06:37;;;;;;;38.00;36.70;;;25.10;99.90;;;;;;5036979;28;21014;-50
2023/08/13 06:09:21;;;;;;;36.50;35.20;;;25.20;99.90;;;;;;5039806;28;20813;-54
2023/08/13 06:11:50;;;;;;;37.53;36.13;;;25.30;99.90;;;;;;5035203;28;20469;-54
2023/08/13 06:14:21;;;;;;;38.10;36.80;;;25.40;99.90;;;;;;5045046;28;20463;-57
2023/08/13 06:16:48;;;;;;;36.60;35.23;;;25.40;99.90;;;;;;5046760;28;20444;-55
2023/08/13 06:19:19;;;;;;;36.77;35.50;;;25.40;99.90;;;;;;5037837;28;20473;-60
2023/08/13 06:21:47;;;;;;;37.50;36.00;;;25.50;99.90;;;;;;5044220;28;20510;-59
2023/08/13 06:24:18;;;;;;;39.17;37.30;;;25.50;99.90;;;;;;5050549;28;20472;-61
2023/08/13 06:26:53;;;;;;;39.43;37.57;;;25.60;99.90;;;;;;5048776;28;20813;-60
2023/08/13 06:29:22;;;;;;;37.67;36.00;;;25.60;99.90;;;;;;5038242;28;20499;-60
2023/08/13 06:31:50;;;;;;;37.53;36.03;;;25.70;99.90;;;;;;5044106;28;20527;-58
2023/08/13 06:34:21;;;;;;;38.33;36.90;;;25.70;99.90;;;;;;5046239;28;20543;-58
2023/08/13 06:36:49;;;;;;;39.33;37.67;;;25.70;99.90;;;;;;5046721;28;20452;-55
2023/08/13 06:39:19;;;;;;;38.37;36.77;;;25.80;99.90;;;;;;5038061;28;20480;-55
2023/08/13 06:41:49;;;;;;;39.77;38.27;;;25.80;99.90;;;;;;5050760;28;20464;-51
2023/08/13 06:44:26;;;;;;;37.80;36.17;;;25.80;99.90;;;;;;5035579;28;21007;-54
2023/08/13 06:47:02;;;;;;;37.57;36.07;;;25.90;99.90;;;;;;5045450;28;21031;-52
2023/08/13 06:49:33;;;;;;;37.50;35.77;;;25.90;99.90;;;;;;5040083;28;20449;-53
2023/08/13 06:52:00;;;;;;;41.33;39.37;;;25.90;99.90;;;;;;5044493;28;20445;-57
2023/08/13 06:54:29;;;;;;;39.23;37.63;;;25.90;99.90;;;;;;5046789;28;20456;-61
2023/08/13 06:57:02;;;;;;;38.03;36.53;;;26.00;99.90;;;;;;5044971;28;20471;-50
2023/08/13 06:59:33;;;;;;;37.70;36.30;;;26.00;99.90;;;;;;5042635;28;20479;-58
2023/08/13 07:02:01;;;;;;;39.00;37.57;;;26.00;99.90;;;;;;5037812;28;20449;-59
2023/08/13 07:04:42;;;;;;;39.30;37.67;;;26.10;99.90;;;;;;5046278;28;20448;-57
2023/08/13 07:07:13;;;;;;;41.87;39.97;;;26.10;99.90;;;;;;5043493;28;20436;-58
2023/08/13 07:09:44;;;;;;;39.83;37.57;;;26.20;99.90;;;;;;5042769;28;20822;-62
2023/08/13 07:12:14;;;;;;;39.30;37.90;;;26.20;99.90;;;;;;5045039;28;20475;-63
2023/08/13 07:14:47;;;;;;;39.37;37.70;;;26.30;99.90;;;;;;5039610;28;20528;-56
2023/08/13 07:17:14;;;;;;;36.87;35.47;;;26.20;99.90;;;;;;5042451;28;20480;-60
2023/08/13 07:19:41;;;;;;;40.20;38.60;;;26.20;99.90;;;;;;5042194;28;20560;-58
2023/08/13 07:22:10;;;;;;;40.20;38.50;;;26.20;99.90;;;;;;5044327;28;20822;-61
2023/08/13 07:24:42;;;;;;;36.57;35.13;;;26.20;99.90;;;;;;5046086;28;20932;-61
2023/08/13 07:27:17;;;;;;;37.77;36.33;;;26.30;99.90;;;;;;5043590;28;20440;-60
2023/08/13 07:29:57;;;;;;;39.00;37.50;;;26.30;99.90;;;;;;5042065;28;20494;-59
2023/08/13 07:32:26;;;;;;;39.40;37.77;;;26.30;99.90;;;;;;5034845;28;20453;-60
2023/08/13 07:34:56;;;;;;;38.13;36.43;;;26.30;99.90;;;;;;5042937;28;20453;-55
2023/08/13 07:37:27;;;;;;;37.50;35.90;;;26.30;99.90;;;;;;5044633;28;20447;-59
2023/08/13 07:39:55;;;;;;;40.07;38.30;;;26.40;99.90;;;;;;5043835;28;20468;-63
2023/08/13 07:42:24;;;;;;;35.60;33.77;;;26.40;99.90;;;;;;5041984;28;20480;-57
2023/08/13 07:44:57;;;;;;;33.00;31.70;;;26.40;99.90;;;;;;5042004;28;20476;-57
2023/08/13 07:47:25;;;;;;;35.73;34.23;;;26.40;99.90;;;;;;5034276;28;20453;-57
2023/08/13 07:50:00;;;;;;;34.43;33.03;;;26.50;99.90;;;;;;5041880;28;20457;-60
2023/08/13 07:52:28;;;;;;;33.67;32.27;;;26.40;99.90;;;;;;5034897;28;20440;-59
2023/08/13 07:54:56;;;;;;;34.03;32.50;;;26.30;99.90;;;;;;5049419;28;20468;-59
2023/08/13 07:57:25;;;;;;;33.17;31.60;;;26.40;99.90;;;;;;5042035;28;20468;-60
2023/08/13 08:00:02;;;;;;;33.23;31.47;;;26.30;99.90;;;;;;5041384;28;20480;-61
2023/08/13 08:02:33;;;;;;;35.40;34.00;;;26.20;99.90;;;;;;5034297;28;20441;-60
2023/08/13 08:05:03;;;;;;;34.37;33.07;;;26.20;99.90;;;;;;5042156;28;20445;-59
2023/08/13 08:07:30;;;;;;;34.50;32.90;;;26.10;99.90;;;;;;5040006;28;20516;-59
2023/08/13 08:10:02;;;;;;;32.93;31.63;;;26.10;99.90;;;;;;5041926;28;20497;-58
2023/08/13 08:12:31;;;;;;;35.10;33.70;;;26.00;99.90;;;;;;5048383;28;20475;-57
2023/08/13 08:15:00;;;;;;;35.33;33.83;;;25.90;99.90;;;;;;5041266;28;20480;-59
2023/08/13 08:17:30;;;;;;;34.13;32.73;;;25.80;99.90;;;;;;5041523;28;20456;-55
2023/08/13 08:19:59;;;;;;;34.00;32.50;;;25.70;99.90;;;;;;5040255;28;20505;-58
2023/08/13 08:22:28;;;;;;;35.43;33.60;;;25.70;99.90;;;;;;5044220;28;20452;-58
2023/08/13 08:24:57;;;;;;;35.20;33.60;;;25.70;99.90;;;;;;5043877;28;20774;-56
2023/08/13 08:27:27;;;;;;;33.90;32.50;;;25.60;99.90;;;;;;5040781;28;20453;-56
2023/08/13 08:29:56;;;;;;;32.73;31.33;;;25.50;99.90;;;;;;5040898;28;20469;-59
2023/08/13 08:32:32;;;;;;;32.70;31.37;;;25.50;99.90;;;;;;5044246;28;20531;-60
2023/08/13 08:35:06;;;;;;;32.27;30.77;;;25.40;99.90;;;;;;5043908;28;20493;-58
2023/08/13 08:37:42;;;;;;;34.80;33.27;;;25.40;99.90;;;;;;5040363;28;20530;-59
2023/08/13 08:40:10;;;;;;;33.13;31.73;;;25.40;99.90;;;;;;5042676;28;20488;-56
2023/08/13 08:42:44;;;;;;;32.07;30.63;;;25.30;99.90;;;;;;5043249;28;20452;-58
2023/08/13 08:45:13;;;;;;;33.67;32.03;;;25.30;99.90;;;;;;5041725;28;20959;-57
2023/08/13 08:47:47;;;;;;;32.50;31.20;;;25.20;99.90;;;;;;5040035;28;20467;-59
2023/08/13 08:50:22;;;;;;;31.50;30.23;;;25.20;99.90;;;;;;5043336;28;20881;-60
2023/08/13 08:52:52;;;;;;;34.37;33.00;;;25.20;99.90;;;;;;5043502;28;20443;-58
2023/08/13 08:55:21;;;;;;;35.17;33.57;;;25.10;99.90;;;;;;5041360;28;20491;-58
2023/08/13 08:57:54;;;;;;;33.17;31.57;;;25.10;99.90;;;;;;5041246;28;20456;-60
2023/08/13 09:00:21;;;;;;;32.47;30.97;;;25.10;99.90;;;;;;5032960;28;20452;-58
2023/08/13 09:02:57;;;;;;;32.37;31.00;;;25.10;99.90;;;;;;5040245;28;20476;-57
2023/08/13 09:05:30;;;;;;;32.93;31.43;;;25.00;99.90;;;;;;5032534;28;20527;-58
2023/08/13 09:08:03;;;;;;;34.60;33.20;;;25.00;99.90;;;;;;5040525;28;20480;-58
2023/08/13 09:10:35;;;;;;;33.60;32.03;;;25.00;99.90;;;;;;5043824;28;20456;-59
2023/08/13 09:13:05;;;;;;;33.63;32.27;;;25.00;99.90;;;;;;5042880;28;20444;-58
2023/08/13 09:15:41;;;;;;;32.83;31.53;;;25.00;99.90;;;;;;5038783;28;20945;-60
2023/08/13 09:18:11;;;;;;;33.40;31.90;;;25.00;99.90;;;;;;5041512;28;20449;-59
2023/08/13 09:20:44;;;;;;;32.57;30.57;;;25.00;99.90;;;;;;5043692;28;20456;-58
2023/08/13 09:23:23;;;;;;;31.87;30.20;;;25.00;99.90;;;;;;5042140;28;20436;-58
2023/08/13 09:25:55;;;;;;;33.27;31.97;;;24.90;99.90;;;;;;5040039;28;20437;-60
2023/08/13 09:28:24;;;;;;;33.07;31.30;;;24.90;99.90;;;;;;5033000;28;20552;-59
2023/08/13 09:31:00;;;;;;;34.17;32.67;;;24.90;99.90;;;;;;5040573;28;20549;-59
2023/08/13 09:33:38;;;;;;;32.63;31.33;;;25.00;99.90;;;;;;5032961;28;20433;-58
2023/08/13 09:36:08;;;;;;;31.80;30.60;;;25.00;99.90;;;;;;5041465;28;20936;-59
2023/08/13 09:38:36;;;;;;;31.30;30.07;;;25.00;99.90;;;;;;5043445;28;20507;-56
2023/08/13 09:41:13;;;;;;;31.73;30.03;;;25.00;99.90;;;;;;5042423;28;20484;-55
2023/08/13 09:43:47;;;;;;;30.20;29.00;;;25.00;99.90;;;;;;5040346;28;20475;-56
2023/08/13 09:46:20;;;;;;;29.70;28.40;;;25.00;99.90;;;;;;5041963;28;20532;-63
2023/08/13 09:48:56;;;;;;;29.17;28.00;;;25.00;99.90;;;;;;5046040;28;20973;-52
2023/08/13 09:51:31;;;;;;;29.67;28.50;;;24.90;99.90;;;;;;5035811;28;20496;-55
2023/08/13 09:54:06;;;;;;;31.50;30.00;;;24.90;99.90;;;;;;5043132;28;20516;-52
2023/08/13 09:56:39;;;;;;;32.00;30.60;;;24.90;99.90;;;;;;5040371;28;20455;-52
2023/08/13 09:59:14;;;;;;;30.73;29.63;;;24.90;99.90;;;;;;5046174;28;20533;-58
2023/08/13 10:01:49;;;;;;;32.93;31.73;;;24.90;99.90;;;;;;5043266;28;20464;-58
2023/08/13 10:04:21;;;;;;;33.40;31.80;;;24.90;99.90;;;;;;5046055;28;20835;-52
2023/08/13 10:06:53;;;;;;;31.40;30.17;;;24.90;99.90;;;;;;5046781;28;20521;-55
2023/08/13 10:09:29;;;;;;;33.23;31.93;;;25.00;99.90;;;;;;5043863;28;20477;-56
2023/08/13 10:11:57;;;;;;;35.10;33.37;;;25.00;99.90;;;;;;5043126;28;20460;-56
2023/08/13 10:14:27;;;;;;;33.30;32.00;;;25.00;99.90;;;;;;5034580;28;20925;-55
2023/08/13 10:16:55;;;;;;;34.33;32.73;;;25.00;99.90;;;;;;5042851;28;20491;-56
2023/08/13 10:19:42;;;;;;;34.10;32.50;;;25.00;99.90;;;;;;5046044;28;20503;-60
2023/08/13 10:22:10;;;;;;;35.57;34.07;;;25.00;99.90;;;;;;5045052;28;20440;-55
2023/08/13 10:24:44;;;;;;;34.83;33.10;;;25.00;99.90;;;;;;5043236;28;20452;-53
2023/08/13 10:27:13;;;;;;;31.30;30.10;;;25.00;99.90;;;;;;5044742;28;20506;-55
2023/08/13 10:29:54;;;;;;;31.60;30.43;;;25.00;99.90;;;;;;5046054;28;20471;-52
2023/08/13 10:32:24;;;;;;;33.23;32.03;;;25.00;99.90;;;;;;5043449;28;20464;-55
2023/08/13 10:35:20;;;;;;;32.83;31.63;;;25.00;99.90;;;;;;5041836;28;20449;-53
2023/08/13 10:40:40;;;;;;;31.13;29.97;;;25.00;99.90;;;;;;5036026;28;20473;-56
2023/08/13 10:43:21;;;;;;;31.47;30.17;;;25.00;99.90;;;;;;5044014;28;20445;-53
2023/08/13 10:45:50;;;;;;;32.67;31.27;;;25.00;99.90;;;;;;5046222;28;20494;-53
2023/08/13 10:48:27;;;;;;;32.67;31.37;;;25.00;99.90;;;;;;5042879;28;20906;-54
2023/08/13 10:50:58;;;;;;;33.67;32.40;;;25.00;99.90;;;;;;5042829;28;20487;-58
2023/08/13 10:53:30;;;;;;;33.03;31.63;;;25.00;99.90;;;;;;5046024;28;20522;-55
2023/08/13 10:56:09;;;;;;;34.67;33.37;;;25.00;99.90;;;;;;5044010;28;20473;-57
2023/08/13 10:58:42;;;;;;;35.90;34.13;;;25.00;99.90;;;;;;5045964;28;20447;-53
2023/08/13 11:01:13;;;;;;;34.70;33.20;;;25.00;99.90;;;;;;5044192;28;20496;-54
2023/08/13 11:03:47;;;;;;;36.10;34.60;;;25.00;99.90;;;;;;5042410;28;20576;-53
2023/08/13 11:06:22;;;;;;;35.37;34.07;;;25.00;99.90;;;;;;5043939;28;20465;-51
2023/08/13 11:08:54;;;;;;;35.23;33.47;;;25.00;99.90;;;;;;5046070;28;21016;-57
2023/08/13 11:11:21;;;;;;;33.07;31.87;;;25.00;99.90;;;;;;5094166;22;20514;-51
2023/08/13 11:13:50;;;;;;;34.90;33.50;;;25.10;99.90;;;;;;5064026;28;20471;-49
2023/08/13 11:16:20;;;;;;;34.80;33.20;;;25.10;99.90;;;;;;5066090;28;20475;-48
2023/08/13 11:18:50;;;;;;;32.87;31.67;;;25.00;99.90;;;;;;5065516;28;20447;-47
2023/08/13 11:21:19;;;;;;;33.83;32.57;;;25.00;99.90;;;;;;5062344;28;20888;-56
2023/08/13 11:23:49;;;;;;;34.10;32.60;;;25.10;99.90;;;;;;5062590;28;20854;-49
2023/08/13 11:26:21;;;;;;;31.87;30.30;;;25.10;99.90;;;;;;5063918;28;20483;-52
2023/08/13 11:28:51;;;;;;;31.37;30.27;;;25.10;99.90;;;;;;5065881;28;20842;-52
2023/08/13 11:31:19;;;;;;;31.80;30.60;;;25.10;99.90;;;;;;5063057;28;20460;-52
2023/08/13 11:33:54;;;;;;;35.30;34.00;;;25.10;99.90;;;;;;5061256;28;20543;-51
2023/08/13 11:36:23;;;;;;;31.93;30.67;;;25.10;99.90;;;;;;5064651;28;20546;-51
2023/08/13 11:38:50;;;;;;;32.17;30.67;;;25.10;99.90;;;;;;5065904;28;20814;-49
2023/08/13 11:41:18;;;;;;;37.13;35.63;;;25.10;99.90;;;;;;5062836;28;20459;-49
2023/08/13 11:43:53;;;;;;;35.90;34.23;;;25.10;99.90;;;;;;5062317;28;20506;-52
2023/08/13 11:46:22;;;;;;;33.00;31.70;;;25.10;99.90;;;;;;5064665;28;20869;-52
2023/08/13 11:48:55;;;;;;;34.00;32.60;;;25.10;99.90;;;;;;5064528;28;20482;-48
2023/08/13 11:51:25;;;;;;;33.03;31.67;;;25.10;99.90;;;;;;5062718;28;20463;-48
2023/08/13 11:53:57;;;;;;;32.73;31.20;;;25.10;99.90;;;;;;5061805;28;20440;-49
2023/08/13 11:56:27;;;;;;;34.20;32.80;;;25.10;99.90;;;;;;5064238;28;20446;-51
2023/08/13 11:58:56;;;;;;;34.03;32.60;;;25.10;99.90;;;;;;5065086;28;20950;-48
2023/08/13 12:01:25;;;;;;;35.53;34.07;;;25.10;99.90;;;;;;5062549;28;20550;-49
2023/08/13 12:04:02;;;;;;;33.13;31.63;;;25.10;99.90;;;;;;5055267;28;20464;-49
2023/08/13 12:06:38;;;;;;;33.37;31.77;;;25.10;99.90;;;;;;5061843;28;20447;-47
2023/08/13 12:09:10;;;;;;;32.17;30.77;;;25.20;99.90;;;;;;5064850;28;20443;-47
2023/08/13 12:11:39;;;;;;;33.70;32.40;;;25.20;99.90;;;;;;5060691;28;20462;-48
2023/08/13 12:14:07;;;;;;;36.73;35.23;;;25.20;99.90;;;;;;5062091;28;20483;-48
2023/08/13 12:16:35;;;;;;;34.37;33.07;;;25.10;99.90;;;;;;5066619;28;20469;-48
2023/08/13 12:19:05;;;;;;;34.63;33.03;;;25.10;99.90;;;;;;5065487;28;20447;-50
2023/08/13 12:21:36;;;;;;;33.07;31.87;;;25.10;99.90;;;;;;5064188;28;20974;-52
2023/08/13 12:24:10;;;;;;;32.40;31.10;;;25.10;99.90;;;;;;5059802;28;20491;-49
2023/08/13 12:26:39;;;;;;;32.87;31.50;;;25.20;99.90;;;;;;5053628;28;20471;-49
2023/08/13 12:29:07;;;;;;;33.30;31.80;;;25.20;99.90;;;;;;5060829;28;21060;-48
2023/08/13 12:31:35;;;;;;;33.03;31.83;;;25.20;99.90;;;;;;5063394;28;20529;-48
2023/08/13 12:34:02;;;;;;;35.80;33.97;;;25.20;99.90;;;;;;5060075;28;20494;-50
2023/08/13 12:36:38;;;;;;;33.90;32.60;;;25.20;99.90;;;;;;5063659;28;20953;-48
2023/08/13 12:39:08;;;;;;;36.43;34.87;;;25.20;99.90;;;;;;5064192;28;20469;-49
2023/08/13 12:41:35;;;;;;;35.60;34.03;;;25.20;99.90;;;;;;5060409;28;20460;-49
2023/08/13 12:44:08;;;;;;;33.63;32.33;;;25.20;99.90;;;;;;5060897;28;20478;-47